M I D A S
Marine Information and Data Acquisition System
Tripno 1020 of the Zeeleeuw from 2005-12-08 07:33:22 to 2005-12-08 15:37:49
Back to CruiseResearch ActivitiesStationsMapUnderway DataData graphs

EquipmentUnitsComment
TimeDGPSUTC
LatitudeDGPSDM.mWGS84
LongitudeDGPSDM.mWGS84
HeadingGyrodeg 
SOGDGPSknotsSpeed over ground
COGDGPSdegCourse over ground
DepthEcho soundermeters200 kHz
Missing or incorrect values are displayed as -999
Navigation data collected by the RV Zeeleeuw from 2005-12-08 07:25:07 to 2005-12-08 15:48:48
Time Latitude Longitude Heading SOG COG Depth
2005-12-08 07:26:12 51°13.603 2°56.069 111.5 1.7 295 -999
2005-12-08 07:27:12 51°13.618 2°56.013 117.2 2.9 293 31.6
2005-12-08 07:28:12 51°13.639 2°55.944 126 2.6 299 11.7
2005-12-08 07:29:12 51°13.674 2°55.869 137.4 4.4 311 -999
2005-12-08 07:30:13 51°13.735 2°55.77 134.4 5.5 311 -999
2005-12-08 07:31:12 51°13.798 2°55.67 146.8 5.5 321 -999
2005-12-08 07:32:12 51°13.886 2°55.629 191.2 5.6 3 35.5
2005-12-08 07:33:12 51°13.943 2°55.652 232.9 0.7 345 11.9
2005-12-08 07:34:12 51°13.983 2°55.556 322.6 7.4 319 11.2
2005-12-08 07:35:12 51°14.114 2°55.428 336.6 10.1 332 11.6
2005-12-08 07:36:11 51°14.257 2°55.263 320.3 11.6 314 12
2005-12-08 07:37:12 51°14.395 2°55.031 328.7 11.8 324 11.9
2005-12-08 07:38:12 51°14.568 2°54.86 332.3 12.9 328 10.9
2005-12-08 07:39:12 51°14.755 2°54.677 331.3 13.2 329 10.8
2005-12-08 07:40:12 51°14.955 2°54.528 341.5 13.3 340 10.3
2005-12-08 07:41:12 51°15.165 2°54.411 343.8 13.4 340 9.9
2005-12-08 07:42:12 51°15.371 2°54.277 341.4 13.4 338 10.7
2005-12-08 07:43:12 51°15.579 2°54.143 342.1 13.5 339 11.3
2005-12-08 07:44:12 51°15.788 2°54.011 341.3 13.6 338 11.9
2005-12-08 07:45:12 51°15.999 2°53.878 341.5 13.6 339 12.3
2005-12-08 07:46:12 51°16.209 2°53.746 341.6 13.6 339 12.9
2005-12-08 07:47:12 51°16.419 2°53.617 341.2 13.6 339 12.9
2005-12-08 07:48:12 51°16.63 2°53.488 341.3 13.6 339 12.7
2005-12-08 07:49:12 51°16.844 2°53.371 346 13.5 344 12.1
2005-12-08 07:50:12 51°17.058 2°53.277 352.8 13.5 350 9.5
2005-12-08 07:51:12 51°17.285 2°53.257 3.6 13.7 359 10.1
2005-12-08 07:52:12 51°17.513 2°53.271 11.3 13.7 7 10.6
2005-12-08 07:53:12 51°17.729 2°53.384 28.5 13.8 23 10.9
2005-12-08 07:54:12 51°17.924 2°53.569 38.1 13.8 32 11.1
2005-12-08 07:55:12 51°18.114 2°53.767 44.3 13.5 38 11.4
2005-12-08 07:56:12 51°18.287 2°54.003 47.2 13.7 41 11.4
2005-12-08 07:57:12 51°18.461 2°54.237 46.7 13.7 39 11.6
2005-12-08 07:58:12 51°18.636 2°54.468 46.2 13.7 39 11.9
2005-12-08 07:59:12 51°18.812 2°54.697 45 13.5 39 12.1
2005-12-08 08:00:12 51°18.987 2°54.922 44.9 13.7 38 12.3
2005-12-08 08:01:12 51°19.161 2°55.148 45.7 13.5 38 12.4
2005-12-08 08:02:12 51°19.335 2°55.37 46.3 13.6 39 12.6
2005-12-08 08:03:12 51°19.509 2°55.592 45 13.5 38 12.6
2005-12-08 08:04:12 51°19.684 2°55.81 44.9 13.3 37 12.7
2005-12-08 08:05:12 51°19.858 2°56.03 44.9 13.3 38 12.7
2005-12-08 08:06:12 51°20.03 2°56.249 46.2 13.2 39 12.9
2005-12-08 08:07:12 51°20.197 2°56.477 48.1 13.1 41 13.1
2005-12-08 08:08:12 51°20.365 2°56.706 46.9 13.2 40 13.1
2005-12-08 08:09:12 51°20.532 2°56.935 47.5 13.2 42 13.3
2005-12-08 08:10:12 51°20.701 2°57.162 47.6 13.4 39 13.4
2005-12-08 08:11:12 51°20.87 2°57.391 47.5 13.4 38 13.5
2005-12-08 08:12:12 51°21.039 2°57.621 47.7 13.3 43 13.7
2005-12-08 08:13:12 51°21.21 2°57.852 47.6 13.5 42 13.7
2005-12-08 08:14:12 51°21.379 2°58.085 47.3 13.4 41 13.8
2005-12-08 08:15:12 51°21.546 2°58.324 50.9 13.4 45 13.8
2005-12-08 08:16:12 51°21.706 2°58.576 51.5 13.6 43 13.9
2005-12-08 08:17:12 51°21.865 2°58.831 51.5 13.6 44 13.9
2005-12-08 08:18:12 51°22.024 2°59.088 51.3 13.5 45 13.8
2005-12-08 08:19:12 51°22.185 2°59.341 51.3 13.6 45 13.8
2005-12-08 08:20:12 51°22.344 2°59.596 50.8 13.6 44 13.9
2005-12-08 08:21:12 51°22.503 2°59.849 51.3 13.5 44 14.3
2005-12-08 08:22:12 51°22.665 3°0.104 51.3 13.7 44 14.3
2005-12-08 08:23:12 51°22.826 3°0.359 51 13.6 44 14.5
2005-12-08 08:24:12 51°22.986 3°0.614 51.4 13.6 44 14.8
2005-12-08 08:25:12 51°23.146 3°0.869 50.8 13.6 44 15
2005-12-08 08:26:12 51°23.313 3°1.114 49.2 13.7 42 15.5
2005-12-08 08:27:12 51°23.48 3°1.359 49.5 13.5 42 16.1
2005-12-08 08:28:12 51°23.645 3°1.604 48.8 13.5 43 16.4
2005-12-08 08:29:12 51°23.811 3°1.847 48.7 13.5 43 16.8
2005-12-08 08:30:12 51°23.976 3°2.092 49.9 13.6 43 17.1
2005-12-08 08:31:12 51°24.142 3°2.336 49.3 13.6 43 16.9
2005-12-08 08:32:12 51°24.307 3°2.58 49.3 13.5 43 17
2005-12-08 08:33:12 51°24.473 3°2.826 49 13.5 43 19.8
2005-12-08 08:34:12 51°24.638 3°3.07 50 13.7 43 19.7
2005-12-08 08:35:12 51°24.803 3°3.311 48.6 13.4 42 16.7
2005-12-08 08:36:12 51°24.968 3°3.554 50.8 13.5 45 15.1
2005-12-08 08:37:12 51°25.134 3°3.801 48.6 13.7 42 14.9
2005-12-08 08:38:12 51°25.301 3°4.048 48.6 13.7 42 13.3
2005-12-08 08:39:12 51°25.467 3°4.294 49 13.5 42 12.4
2005-12-08 08:40:12 51°25.634 3°4.54 49.3 13.7 43 12.3
2005-12-08 08:41:12 51°25.802 3°4.784 49.7 13.6 43 11.7
2005-12-08 08:42:12 51°25.969 3°5.029 48.4 13.3 42 11.5
2005-12-08 08:43:12 51°26.138 3°5.27 49.3 13.5 42 11.9
2005-12-08 08:44:12 51°26.307 3°5.512 49.2 13.7 42 11.4
2005-12-08 08:45:12 51°26.475 3°5.753 48.1 13.6 41 11.5
2005-12-08 08:46:12 51°26.642 3°5.994 49.2 13.3 42 11.8
2005-12-08 08:47:12 51°26.809 3°6.234 49.8 13.6 42 12.2
2005-12-08 08:48:12 51°26.976 3°6.471 49.2 13.4 40 13
2005-12-08 08:49:12 51°27.143 3°6.709 48.9 13.5 41 13.4
2005-12-08 08:50:12 51°27.309 3°6.946 49.5 13.2 42 13.5
2005-12-08 08:51:12 51°27.476 3°7.181 48.4 13.4 41 13.6
2005-12-08 08:52:12 51°27.638 3°7.422 54.5 13.1 48 13.6
2005-12-08 08:53:12 51°27.754 3°7.649 62.5 8.6 53 13.6
2005-12-08 08:54:12 51°27.831 3°7.795 58.8 6 45 13.3
2005-12-08 08:55:12 51°27.861 3°7.834 97.2 1.1 358 13.2
2005-12-08 08:56:13 51°27.877 3°7.827 102.7 1 339 -999
2005-12-08 08:57:12 51°27.892 3°7.817 98.5 0.8 5 29.6
2005-12-08 08:58:12 51°27.877 3°7.854 163.4 2.8 168 13.2
2005-12-08 08:59:12 51°27.828 3°7.791 217.9 3.8 223 13.3
2005-12-08 09:00:12 51°27.819 3°7.76 199.1 1 314 13.5
2005-12-08 09:01:12 51°27.83 3°7.739 207.4 1.1 311 13.5
2005-12-08 09:02:12 51°27.843 3°7.717 213 1.1 314 13.6
2005-12-08 09:03:12 51°27.855 3°7.697 211.3 1 312 13.7
2005-12-08 09:04:12 51°27.865 3°7.676 205.9 1 312 13.8
2005-12-08 09:05:12 51°27.876 3°7.655 202.7 1 314 13.8
2005-12-08 09:06:12 51°27.888 3°7.633 202.5 0.9 316 13.9
2005-12-08 09:07:12 51°27.899 3°7.612 200.8 1.1 311 13.9
2005-12-08 09:08:12 51°27.91 3°7.59 200 1 311 14
2005-12-08 09:09:12 51°27.921 3°7.568 199.2 1 310 14
2005-12-08 09:10:12 51°27.931 3°7.547 196.8 1 303 14.1
2005-12-08 09:11:13 51°27.941 3°7.524 192.5 1 308 14.2
2005-12-08 09:12:12 51°27.951 3°7.503 192.9 1.1 306 14.3
2005-12-08 09:13:12 51°27.962 3°7.48 193.7 1 304 14.2
2005-12-08 09:14:12 51°27.971 3°7.456 191.7 1 303 14.4
2005-12-08 09:15:12 51°27.975 3°7.434 189.9 1.1 232 14.4
2005-12-08 09:16:12 51°27.942 3°7.451 142.5 3 134 14.4
2005-12-08 09:17:12 51°27.918 3°7.558 126.2 5.2 118 14
2005-12-08 09:18:12 51°27.87 3°7.689 127.7 6.1 120 13.5
2005-12-08 09:19:12 51°27.816 3°7.83 122.2 5.9 113 12.7
2005-12-08 09:20:12 51°27.815 3°7.9 115.1 0.8 334 12.1
2005-12-08 09:21:11 51°27.827 3°7.887 128.7 0.9 319 4.7
2005-12-08 09:22:11 51°27.839 3°7.867 144.4 1.1 315 12.6
2005-12-08 09:23:12 51°27.852 3°7.842 163 1.3 311 12.9
2005-12-08 09:24:12 51°27.865 3°7.819 181.2 1.1 316 13.1
2005-12-08 09:25:12 51°27.879 3°7.796 197.4 1.1 313 13.2
2005-12-08 09:26:12 51°27.892 3°7.774 209.3 1.1 311 13.3
2005-12-08 09:27:12 51°27.906 3°7.753 213.2 1.2 314 13.4
2005-12-08 09:28:12 51°27.919 3°7.732 214.2 1 312 13.5
2005-12-08 09:29:12 51°27.932 3°7.71 212.7 1 311 13.6
2005-12-08 09:30:12 51°27.943 3°7.686 211.7 1.1 307 13.7
2005-12-08 09:31:11 51°27.953 3°7.662 209.6 1.1 284 13.8
2005-12-08 09:32:13 51°27.93 3°7.65 161.1 2.3 163 13.6
2005-12-08 09:33:12 51°27.892 3°7.712 136.3 4.1 133 13.4
2005-12-08 09:34:12 51°27.84 3°7.8 141.8 4.8 138 12.9
2005-12-08 09:35:12 51°27.786 3°7.873 135.2 3 129 12.1
2005-12-08 09:36:12 51°27.778 3°7.898 132.8 0.3 321 11.9
2005-12-08 09:37:12 51°27.782 3°7.887 148.7 0.7 297 12
2005-12-08 09:38:12 51°27.788 3°7.866 171.7 0.9 296 12.2
2005-12-08 09:39:12 51°27.795 3°7.841 192.8 1 296 12.4
2005-12-08 09:40:12 51°27.804 3°7.813 204.6 1.3 298 12.6
2005-12-08 09:41:12 51°27.814 3°7.785 212.7 1.1 301 12.8
2005-12-08 09:42:11 51°27.825 3°7.759 214.1 1.1 299 13
2005-12-08 09:43:12 51°27.834 3°7.733 208.2 0.9 299 13.2
2005-12-08 09:44:12 51°27.843 3°7.708 200.8 0.9 299 13.2
2005-12-08 09:45:12 51°27.851 3°7.685 195.7 1.1 299 13.1
2005-12-08 09:46:12 51°27.862 3°7.661 196.3 1 300 13.3
2005-12-08 09:47:12 51°27.871 3°7.636 197.6 1.1 297 13.4
2005-12-08 09:48:12 51°27.879 3°7.611 195.9 1.1 301 13.5
2005-12-08 09:49:12 51°27.867 3°7.593 167.1 1.5 178 13.5
2005-12-08 09:50:12 51°27.849 3°7.632 108.5 2.4 93 13.3
2005-12-08 09:51:11 51°27.858 3°7.728 101.5 4.9 92 13.1
2005-12-08 09:52:12 51°27.824 3°7.824 134.5 3.3 126 12.5
2005-12-08 09:53:12 51°27.816 3°7.889 106.6 2.1 93 12.1
2005-12-08 09:54:12 51°27.82 3°7.905 135 0.6 321 11.8
2005-12-08 09:55:12 51°27.827 3°7.889 164.3 0.9 298 12
2005-12-08 09:56:12 51°27.835 3°7.865 188.3 1.1 299 12.3
2005-12-08 09:57:12 51°27.843 3°7.842 200.1 1.1 297 12.5
2005-12-08 09:58:12 51°27.853 3°7.817 207.3 1 299 12.7
2005-12-08 09:59:12 51°27.861 3°7.793 206 1 297 12.9
2005-12-08 10:00:12 51°27.869 3°7.768 203.9 0.9 294 13
2005-12-08 10:01:12 51°27.875 3°7.743 200.5 1 293 13
2005-12-08 10:02:12 51°27.881 3°7.719 195 0.9 293 13.1
2005-12-08 10:03:12 51°27.887 3°7.697 192.9 0.8 289 13.2
2005-12-08 10:04:12 51°27.892 3°7.672 191.8 0.9 289 13.2
2005-12-08 10:05:12 51°27.897 3°7.648 190.4 1 289 13.3
2005-12-08 10:06:12 51°27.903 3°7.624 191 0.9 293 13.4
2005-12-08 10:07:12 51°27.906 3°7.6 186.4 1.2 230 13.4
2005-12-08 10:08:12 51°27.879 3°7.629 118.5 2.9 108 13.3
2005-12-08 10:09:12 51°27.913 3°7.717 53.9 5.6 42 13.1
2005-12-08 10:10:12 51°27.977 3°7.885 74.1 8.2 66 12.7
2005-12-08 10:11:12 51°28.025 3°8.049 94.4 4.8 88 11.8
2005-12-08 10:12:12 51°28.001 3°8.113 155.7 2.4 165 11.9
2005-12-08 10:13:13 51°27.978 3°8.102 194.1 0.8 271 11.9
2005-12-08 10:14:12 51°27.979 3°8.08 196.4 0.8 284 11.9
2005-12-08 10:15:12 51°27.983 3°8.056 187.6 0.9 283 11.8
2005-12-08 10:16:12 51°27.987 3°8.034 180.6 0.8 284 11.7
2005-12-08 10:17:12 51°27.99 3°8.012 178.7 0.7 281 11.8
2005-12-08 10:18:12 51°27.992 3°7.992 176.4 0.8 281 12
2005-12-08 10:19:12 51°27.995 3°7.969 173.7 0.8 280 12.2
2005-12-08 10:20:12 51°27.984 3°7.962 146.5 1.5 148 12.1
2005-12-08 10:21:12 51°27.985 3°8.023 76.5 3.9 57 11.8
2005-12-08 10:22:12 51°28.064 3°8.014 326.3 5.9 316 12.2
2005-12-08 10:23:12 51°28.058 3°7.861 245.8 6.9 250 13.1
2005-12-08 10:24:12 51°27.986 3°7.735 191.2 5.8 188 13.1
2005-12-08 10:25:12 51°27.916 3°7.839 128.4 7.7 127 12.6
2005-12-08 10:26:12 51°27.834 3°8.038 128.5 9.5 125 11.3
2005-12-08 10:27:12 51°27.736 3°8.239 130.3 9.5 128 12.4
2005-12-08 10:28:12 51°27.651 3°8.456 126 9.5 123 12.8
2005-12-08 10:29:12 51°27.607 3°8.607 129.9 4.4 126 12.8
2005-12-08 10:30:12 51°27.587 3°8.629 178.1 0.7 309 12.8
2005-12-08 10:31:13 51°27.598 3°8.612 205.3 1.1 240 4.6
2005-12-08 10:32:12 51°27.592 3°8.583 209.2 1.2 258 12.9
2005-12-08 10:33:12 51°27.589 3°8.554 203.2 1 260 12.9
2005-12-08 10:34:12 51°27.587 3°8.532 195.5 0.9 265 12.9
2005-12-08 10:35:12 51°27.587 3°8.51 189.9 0.9 274 12.8
2005-12-08 10:36:12 51°27.59 3°8.488 188.4 0.7 277 12.7
2005-12-08 10:37:12 51°27.584 3°8.464 195.8 1.9 217 12.7
2005-12-08 10:38:12 51°27.563 3°8.382 271.1 4.3 276 12.4
2005-12-08 10:39:12 51°27.612 3°8.303 351.4 4.4 345 12.3
2005-12-08 10:40:12 51°27.673 3°8.359 73.7 5.7 67 12.5
2005-12-08 10:41:12 51°27.636 3°8.517 121.4 6.1 115 12.9
2005-12-08 10:42:12 51°27.623 3°8.617 113.5 2.8 107 12.6
2005-12-08 10:43:12 51°27.62 3°8.625 149 0.6 262 12.7
2005-12-08 10:44:12 51°27.619 3°8.607 180 0.7 266 4.6
2005-12-08 10:45:12 51°27.619 3°8.583 198.7 0.9 265 12.9
2005-12-08 10:46:12 51°27.62 3°8.557 205 1 268 12.8
2005-12-08 10:47:12 51°27.62 3°8.53 202.9 0.9 268 12.8
2005-12-08 10:48:12 51°27.62 3°8.505 199.3 0.9 268 12.8
2005-12-08 10:49:12 51°27.62 3°8.482 195.2 0.9 267 12.8
2005-12-08 10:50:12 51°27.62 3°8.458 189.6 0.9 267 12.7
2005-12-08 10:51:12 51°27.583 3°8.419 206.1 5.1 209 12.5
2005-12-08 10:52:13 51°27.529 3°8.224 269.9 9.9 270 12
2005-12-08 10:53:12 51°27.625 3°8.003 327.3 10.9 323 11.1
2005-12-08 10:54:12 51°27.776 3°7.91 357.7 7.2 349 11.1
2005-12-08 10:55:12 51°27.832 3°7.881 330 1.7 316 11.6
2005-12-08 10:56:13 51°27.833 3°7.875 300 0.6 139 11.7
2005-12-08 10:57:13 51°27.829 3°7.89 281 0.4 271 36
2005-12-08 10:58:12 51°27.815 3°7.838 216 2.4 228 11.8
2005-12-08 10:59:12 51°27.822 3°7.815 202.9 1.9 351 30.1
2005-12-08 11:00:12 51°27.811 3°7.8 173.7 2.8 181 12.1
2005-12-08 11:01:12 51°27.783 3°7.853 107 2.1 102 11.4
2005-12-08 11:02:12 51°27.771 3°7.897 128.8 1 150 11
2005-12-08 11:03:13 51°27.774 3°7.878 162.5 1 278 -999
2005-12-08 11:04:13 51°27.777 3°7.853 181.2 1 278 11.4
2005-12-08 11:05:12 51°27.779 3°7.828 197.6 0.9 273 11.7
2005-12-08 11:06:12 51°27.78 3°7.802 204.6 1 271 11.8
2005-12-08 11:07:12 51°27.781 3°7.776 203.8 1 269 12
2005-12-08 11:08:13 51°27.781 3°7.751 201.5 1 266 12.1
2005-12-08 11:09:13 51°27.78 3°7.725 197.1 0.9 269 12.2
2005-12-08 11:10:12 51°27.773 3°7.698 207.5 1.6 231 12.3
2005-12-08 11:11:12 51°27.753 3°7.642 245.3 3.1 251 12.4
2005-12-08 11:12:12 51°27.764 3°7.552 311.3 3.6 304 12.5
2005-12-08 11:13:12 51°27.814 3°7.512 10 3.2 355 12.8
2005-12-08 11:14:12 51°27.855 3°7.545 63.9 2.6 53 12.8
2005-12-08 11:15:12 51°27.853 3°7.611 116.3 2.8 118 12.7
2005-12-08 11:16:13 51°27.818 3°7.67 119.7 2.9 122 12.5
2005-12-08 11:17:13 51°27.82 3°7.746 80.3 3.2 79 12.2
2005-12-08 11:18:12 51°27.839 3°7.834 76.7 3.8 70 11.9
2005-12-08 11:19:12 51°27.859 3°7.923 79 2.9 69 11.2
2005-12-08 11:20:12 51°27.871 3°7.976 83.5 1.7 73 10.9
2005-12-08 11:21:12 51°27.877 3°8.006 85.6 0.8 73 10.9
2005-12-08 11:22:12 51°27.88 3°8.019 88.1 0.3 44 11
2005-12-08 11:23:12 51°27.881 3°8.019 91.4 0.2 326 11
2005-12-08 11:24:12 51°27.881 3°8.012 96.3 0.4 276 11
2005-12-08 11:25:13 51°27.879 3°7.996 99.6 0.7 261 11
2005-12-08 11:26:13 51°27.879 3°7.974 104.2 0.9 259 11
2005-12-08 11:27:12 51°27.877 3°7.946 117.7 1.1 268 11.1
2005-12-08 11:28:13 51°27.876 3°7.914 138 1.1 274 11.4
2005-12-08 11:29:12 51°27.877 3°7.884 159.6 1.1 274 11.7
2005-12-08 11:30:13 51°27.879 3°7.856 179.7 1.1 274 11.9
2005-12-08 11:31:12 51°27.879 3°7.829 195.2 1 270 12.1
2005-12-08 11:32:12 51°27.879 3°7.803 201.7 1 266 12.2
2005-12-08 11:33:13 51°27.878 3°7.776 201.6 0.9 263 12.3
2005-12-08 11:34:12 51°27.875 3°7.749 196.5 1 259 12.4
2005-12-08 11:35:12 51°27.872 3°7.723 189.9 1.2 259 12.4
2005-12-08 11:36:12 51°27.868 3°7.697 186 1 254 12.5
2005-12-08 11:37:13 51°27.863 3°7.67 184.4 1 251 12.5
2005-12-08 11:38:12 51°27.857 3°7.644 182.8 1.1 249 12.6
2005-12-08 11:39:13 51°27.851 3°7.617 181.2 1.1 250 12.6
2005-12-08 11:40:12 51°27.846 3°7.59 180.6 1 252 12.6
2005-12-08 11:41:12 51°27.839 3°7.563 179.5 1.1 246 12.7
2005-12-08 11:42:12 51°27.831 3°7.535 178.8 1.1 243 12.7
2005-12-08 11:43:12 51°27.824 3°7.509 178.6 1.1 244 12.8
2005-12-08 11:44:13 51°27.815 3°7.481 179.2 1.2 241 12.7
2005-12-08 11:45:12 51°27.806 3°7.456 177.7 1.2 241 12.8
2005-12-08 11:46:13 51°27.797 3°7.428 179.6 1.1 244 12.7
2005-12-08 11:47:12 51°27.786 3°7.4 179.9 1.2 240 12.8
2005-12-08 11:48:13 51°27.778 3°7.374 179.9 1.2 238 12.9
2005-12-08 11:49:12 51°27.767 3°7.345 180.8 1.2 242 12.9
2005-12-08 11:50:13 51°27.755 3°7.318 179.6 1.5 217 12.9
2005-12-08 11:51:13 51°27.724 3°7.309 150.6 2 172 12.8
2005-12-08 11:52:12 51°27.683 3°7.328 147.8 3.4 161 12.7
2005-12-08 11:53:13 51°27.597 3°7.363 159.2 7.3 162 12.3
2005-12-08 11:54:13 51°27.482 3°7.488 129.5 8.7 131 11.7
2005-12-08 11:55:12 51°27.437 3°7.692 87.4 8 85 10.7
2005-12-08 11:56:13 51°27.529 3°7.832 26.7 8.2 17 10.2
2005-12-08 11:57:13 51°27.675 3°7.815 1.3 9.2 352 10.7
2005-12-08 11:58:12 51°27.812 3°7.812 19.5 6.4 9 11.7
2005-12-08 11:59:12 51°27.875 3°7.81 1.7 1.7 327 12.2
2005-12-08 12:00:13 51°27.872 3°7.782 346.7 1 259 12.3
2005-12-08 12:01:12 51°27.881 3°7.729 301.7 4.2 287 12.4
2005-12-08 12:02:12 51°27.832 3°7.625 196.4 5.6 192 12.5
2005-12-08 12:03:12 51°27.773 3°7.698 97.5 4.5 96 12.2
2005-12-08 12:04:12 51°27.816 3°7.789 37.6 3.4 26 12
2005-12-08 12:05:12 51°27.853 3°7.824 63.1 0.7 41 11.9
2005-12-08 12:06:12 51°27.852 3°7.816 82.9 0.5 238 12
2005-12-08 12:07:13 51°27.847 3°7.801 89.8 0.8 248 12.1
2005-12-08 12:08:12 51°27.841 3°7.78 92.1 0.9 240 12.2
2005-12-08 12:09:13 51°27.835 3°7.758 87.8 0.9 240 12.3
2005-12-08 12:10:12 51°27.831 3°7.739 77.5 0.5 245 12.3
2005-12-08 12:11:13 51°27.83 3°7.726 64.1 0.4 265 12.3
2005-12-08 12:12:12 51°27.832 3°7.716 55 0.3 309 12.4
2005-12-08 12:13:13 51°27.836 3°7.709 54.9 0.5 325 12.3
2005-12-08 12:14:13 51°27.842 3°7.705 56.9 0.4 352 12.5
2005-12-08 12:15:13 51°27.847 3°7.704 60.2 0.4 -999 12.4
2005-12-08 12:16:13 51°27.852 3°7.706 62.8 0.5 26 12.5
2005-12-08 12:17:13 51°27.854 3°7.748 104 2.5 112 12.3
2005-12-08 12:18:12 51°27.833 3°7.812 95.7 2.2 104 12
2005-12-08 12:19:12 51°27.832 3°7.849 75.6 0.8 80 11.8
2005-12-08 12:20:12 51°27.835 3°7.865 65.3 0.6 53 11.6
2005-12-08 12:21:13 51°27.843 3°7.874 61.4 0.5 30 11.6
2005-12-08 12:22:13 51°27.848 3°7.881 62.9 0.3 48 11.5
2005-12-08 12:23:12 51°27.852 3°7.884 65.3 0.1 28 11.6
2005-12-08 12:24:12 51°27.852 3°7.879 64.3 0.3 271 11.6
2005-12-08 12:25:12 51°27.849 3°7.866 61.7 0.6 261 11.7
2005-12-08 12:26:12 51°27.846 3°7.85 57.6 0.8 258 11.8
2005-12-08 12:27:12 51°27.844 3°7.828 50.1 0.9 260 11.9
2005-12-08 12:28:12 51°27.839 3°7.803 42.5 1 249 12.2
2005-12-08 12:29:12 51°27.836 3°7.777 30.9 0.8 293 12.3
2005-12-08 12:30:13 51°27.861 3°7.806 64.5 3.6 61 12.1
2005-12-08 12:31:12 51°27.834 3°7.89 145.2 5 157 11.5
2005-12-08 12:32:13 51°27.757 3°7.812 251.8 6.4 251 11.6
2005-12-08 12:33:13 51°27.801 3°7.698 356.7 4.9 346 12.4
2005-12-08 12:34:12 51°27.835 3°7.782 102.6 5.3 112 12.2
2005-12-08 12:35:13 51°27.807 3°7.815 113.6 1.2 221 11.8
2005-12-08 12:36:13 51°27.79 3°7.794 118.4 1.2 215 4.8
2005-12-08 12:37:12 51°27.771 3°7.781 118 1.3 197 12
2005-12-08 12:38:12 51°27.751 3°7.779 99 1.1 166 11.9
2005-12-08 12:39:12 51°27.741 3°7.788 69 0.5 83 11.8
2005-12-08 12:40:13 51°27.768 3°7.788 1 2.8 336 11.9
2005-12-08 12:41:13 51°27.807 3°7.772 25.6 1.4 351 12.3
2005-12-08 12:42:13 51°27.816 3°7.78 67.3 1.3 79 12.2
2005-12-08 12:43:13 51°27.805 3°7.807 110.8 1.1 207 12
2005-12-08 12:44:12 51°27.788 3°7.793 125.5 1.2 204 11.9
2005-12-08 12:45:13 51°27.767 3°7.808 91.8 1.2 124 11.7
2005-12-08 12:46:12 51°27.762 3°7.828 62.9 0.5 114 11.6
2005-12-08 12:47:13 51°27.759 3°7.83 52.7 0.2 224 11.5
2005-12-08 12:48:13 51°27.755 3°7.82 41.3 0.5 286 11.6
2005-12-08 12:49:13 51°27.779 3°7.798 348.3 2.8 324 11.9
2005-12-08 12:50:13 51°27.829 3°7.772 19 2.9 7 12.2
2005-12-08 12:51:12 51°27.844 3°7.791 69 0.8 95 12.3
2005-12-08 12:52:13 51°27.83 3°7.811 110.3 1.2 201 12.2
2005-12-08 12:53:13 51°27.809 3°7.798 131.3 1.5 204 12.2
2005-12-08 12:54:12 51°27.785 3°7.782 139.1 1.6 203 12
2005-12-08 12:55:12 51°27.76 3°7.767 135.4 1.5 200 12.1
2005-12-08 12:56:13 51°27.736 3°7.751 127.3 1.6 203 12.1
2005-12-08 12:57:12 51°27.714 3°7.736 121.2 1.5 204 12.1
2005-12-08 12:58:13 51°27.696 3°7.756 77.1 1.9 93 11.9
2005-12-08 12:59:13 51°27.735 3°7.792 28.7 3.8 25 11.7
2005-12-08 13:00:13 51°27.794 3°7.856 32.3 4.2 27 11.5
2005-12-08 13:01:13 51°27.825 3°7.87 33.2 0.3 319 11.7
2005-12-08 13:02:12 51°27.825 3°7.861 37.8 0.4 249 11.8
2005-12-08 13:03:12 51°27.819 3°7.847 40 0.8 233 11.8
2005-12-08 13:04:13 51°27.809 3°7.828 37.5 1.1 236 12
2005-12-08 13:05:12 51°27.796 3°7.804 33.3 1.3 223 12
2005-12-08 13:06:12 51°27.786 3°7.786 46.6 0.3 218 12.3
2005-12-08 13:07:12 51°27.779 3°7.82 77.6 2.2 96 11.8
2005-12-08 13:08:13 51°27.805 3°7.862 21.7 2.1 10 11.6
2005-12-08 13:09:13 51°27.808 3°7.852 38.2 0.6 225 11.8
2005-12-08 13:10:13 51°27.798 3°7.837 49.1 1 210 11.8
2005-12-08 13:11:13 51°27.784 3°7.822 55.9 0.6 195 11.9
2005-12-08 13:12:13 51°27.795 3°7.815 359.1 1.5 314 12.1
2005-12-08 13:13:13 51°27.783 3°7.784 326.5 1.6 234 12.2
2005-12-08 13:14:12 51°27.766 3°7.748 313.6 1.7 231 12.3
2005-12-08 13:15:13 51°27.747 3°7.711 314.4 1.7 231 12.4
2005-12-08 13:16:12 51°27.727 3°7.677 321.5 1.8 226 12.5
2005-12-08 13:17:13 51°27.706 3°7.643 325.1 1.7 234 12.5
2005-12-08 13:18:13 51°27.724 3°7.622 28.4 2.1 23 12.6
2005-12-08 13:19:13 51°27.719 3°7.702 99.8 4.5 115 12.4
2005-12-08 13:20:13 51°27.693 3°7.877 92.5 7.6 97 11
2005-12-08 13:21:13 51°27.678 3°8.093 93.3 8.5 100 11.9
2005-12-08 13:22:13 51°27.659 3°8.265 86.8 5 98 12.4
2005-12-08 13:23:13 51°27.642 3°8.381 95.8 4.8 111 12.7
2005-12-08 13:24:11 51°27.628 3°8.512 80.5 5.4 91 12.9
2005-12-08 13:25:12 51°27.619 3°8.607 77.9 1.4 136 12.8
2005-12-08 13:26:12 51°27.594 3°8.595 76.7 1.6 198 9.1
2005-12-08 13:27:13 51°27.572 3°8.594 66.7 1 160 12.9
2005-12-08 13:28:13 51°27.558 3°8.597 39.5 0.8 191 12.9
2005-12-08 13:29:13 51°27.546 3°8.585 19.4 1 219 12.8
2005-12-08 13:30:13 51°27.564 3°8.569 9.6 3.9 357 12.9
2005-12-08 13:31:13 51°27.642 3°8.55 352.7 3.9 334 13
2005-12-08 13:32:13 51°27.645 3°8.517 4.3 1.3 232 13.1
2005-12-08 13:33:13 51°27.638 3°8.495 13.8 1.3 348 13
2005-12-08 13:34:12 51°27.644 3°8.548 89.1 2.9 119 13.1
2005-12-08 13:35:13 51°27.613 3°8.569 133.4 1.7 232 13
2005-12-08 13:36:12 51°27.587 3°8.548 133.9 2.2 179 5.1
2005-12-08 13:37:13 51°27.552 3°8.573 95.3 2.1 148 12.9
2005-12-08 13:38:13 51°27.529 3°8.597 76 1.7 119 12.9
2005-12-08 13:39:13 51°27.528 3°8.613 28.2 0.1 29 12.9
2005-12-08 13:40:13 51°27.528 3°8.599 9.4 0.8 261 12.8
2005-12-08 13:41:12 51°27.522 3°8.576 2.6 1.1 240 13
2005-12-08 13:42:13 51°27.51 3°8.549 359.4 1.4 232 12.9
2005-12-08 13:43:13 51°27.523 3°8.518 355.6 3.1 330 12.9
2005-12-08 13:44:13 51°27.624 3°8.47 358.5 8.6 346 12.9
2005-12-08 13:45:13 51°27.777 3°8.392 350.7 10.1 338 13
2005-12-08 13:46:13 51°27.93 3°8.267 340.9 10.5 327 12.8
2005-12-08 13:47:13 51°28.054 3°8.073 319 9.5 302 11.8
2005-12-08 13:48:13 51°28.059 3°7.923 275.2 3.3 248 13
2005-12-08 13:49:13 51°28.037 3°7.911 268.2 1.5 195 -999
2005-12-08 13:50:13 51°28.014 3°7.895 275.4 1.6 205 13
2005-12-08 13:51:13 51°27.99 3°7.871 277.4 1.8 211 12.9
2005-12-08 13:52:13 51°27.964 3°7.846 281 1.8 212 12.9
2005-12-08 13:53:12 51°27.938 3°7.82 284.4 2 214 12.9
2005-12-08 13:54:13 51°27.912 3°7.791 288.6 1.9 215 13.1
2005-12-08 13:55:12 51°27.887 3°7.763 293.2 1.8 216 13
2005-12-08 13:56:12 51°27.861 3°7.733 298.4 1.9 215 13
2005-12-08 13:57:12 51°27.837 3°7.703 302.5 2 219 13.1
2005-12-08 13:58:13 51°27.811 3°7.672 306.2 1.9 218 13.1
2005-12-08 13:59:13 51°27.786 3°7.642 308.9 1.9 216 13.2
2005-12-08 14:00:12 51°27.761 3°7.612 309.9 1.9 217 13.1
2005-12-08 14:01:12 51°27.755 3°7.556 327.6 4 304 13.1
2005-12-08 14:02:13 51°27.814 3°7.568 56.2 4.4 62 13.3
2005-12-08 14:03:12 51°27.873 3°7.667 43.3 6.2 42 13.3
2005-12-08 14:04:13 51°27.948 3°7.803 51.3 6.9 49 13.1
2005-12-08 14:05:13 51°28.02 3°7.938 45.7 5.4 45 12.8
2005-12-08 14:06:13 51°28.032 3°8.007 87.8 1.5 135 12.4
2005-12-08 14:07:13 51°28.006 3°8 132.4 1.9 191 12.3
2005-12-08 14:08:13 51°27.975 3°7.985 154.2 2.1 194 12.1
2005-12-08 14:09:13 51°27.942 3°7.967 150.5 2.1 198 12
2005-12-08 14:10:13 51°27.911 3°7.95 145.8 2 200 12.1
2005-12-08 14:11:13 51°27.88 3°7.933 142.3 1.8 200 12.1
2005-12-08 14:12:13 51°27.851 3°7.917 139 1.9 202 12.1
2005-12-08 14:13:13 51°27.816 3°7.91 136.2 2.8 170 11.9
2005-12-08 14:14:13 51°27.719 3°7.966 162.5 8.5 168 11.6
2005-12-08 14:15:12 51°27.524 3°7.951 198.2 13.7 201 11.7
2005-12-08 14:16:13 51°27.325 3°7.746 216.2 14.1 213 11
2005-12-08 14:17:13 51°27.123 3°7.549 215.3 14.1 211 11.6
2005-12-08 14:18:13 51°26.926 3°7.345 218 14.1 214 11.5
2005-12-08 14:19:13 51°26.73 3°7.137 217.7 14.3 216 11.3
2005-12-08 14:20:12 51°26.538 3°6.93 218.3 14.1 214 11.2
2005-12-08 14:21:12 51°26.342 3°6.722 218.9 14.2 213 10.6
2005-12-08 14:22:13 51°26.141 3°6.509 217 14.3 213 10.2
2005-12-08 14:23:13 51°25.946 3°6.297 218.8 14.2 214 10.2
2005-12-08 14:24:13 51°25.747 3°6.099 216.2 14.2 212 10.2
2005-12-08 14:25:13 51°25.548 3°5.905 217.2 13.9 210 10.6
2005-12-08 14:26:13 51°25.351 3°5.712 216.9 13.9 209 11.3
2005-12-08 14:27:13 51°25.153 3°5.517 217.1 13.7 211 12.1
2005-12-08 14:28:14 51°24.953 3°5.32 215.7 13.9 212 12.8
2005-12-08 14:29:13 51°24.762 3°5.13 216.3 13.8 212 13.5
2005-12-08 14:30:14 51°24.565 3°4.935 215.5 13.8 211 13.4
2005-12-08 14:31:14 51°24.373 3°4.741 216.6 13.4 213 17.8
2005-12-08 14:32:14 51°24.182 3°4.554 215.8 13.5 211 18.6
2005-12-08 14:33:14 51°23.992 3°4.367 216.9 13.2 212 14.6
2005-12-08 14:34:13 51°23.803 3°4.182 216.1 13.5 213 13
2005-12-08 14:35:14 51°23.611 3°3.987 218.6 13.3 214 12.9
2005-12-08 14:36:13 51°23.427 3°3.793 216 13.5 213 12.9
2005-12-08 14:37:13 51°23.244 3°3.584 221.3 13.7 218 12.8
2005-12-08 14:38:14 51°23.07 3°3.349 223.5 13.4 221 11.4
2005-12-08 14:39:14 51°22.905 3°3.109 224.1 13.5 223 10.3
2005-12-08 14:40:13 51°22.741 3°2.867 225.1 13.6 224 11.7
2005-12-08 14:41:14 51°22.571 3°2.618 224.9 13.6 221 11.3
2005-12-08 14:42:14 51°22.407 3°2.369 229.3 13.6 227 11.7
2005-12-08 14:43:14 51°22.25 3°2.109 228.3 13.5 225 11.8
2005-12-08 14:44:14 51°22.091 3°1.852 227.1 13.6 224 11.9
2005-12-08 14:45:14 51°21.933 3°1.601 229.2 13.3 226 11.9
2005-12-08 14:46:14 51°21.774 3°1.346 229.1 13.4 226 12
2005-12-08 14:47:13 51°21.617 3°1.096 227.5 13.4 224 12
2005-12-08 14:48:14 51°21.455 3°0.837 228 13.6 226 11.9
2005-12-08 14:49:14 51°21.307 3°0.571 231.2 13.3 227 11.9
2005-12-08 14:50:14 51°21.158 3°0.306 231.4 13.4 229 11.8
2005-12-08 14:51:14 51°21.01 3°0.04 231.7 13.4 231 11.8
2005-12-08 14:52:13 51°20.866 2°59.776 232.4 13.4 230 11.9
2005-12-08 14:53:14 51°20.714 2°59.507 231.4 13.3 229 11.8
2005-12-08 14:54:13 51°20.568 2°59.242 231.2 13.5 229 11.7
2005-12-08 14:55:14 51°20.416 2°58.967 230.3 13.6 228 11.6
2005-12-08 14:56:14 51°20.284 2°58.674 242 13.7 239 11.5
2005-12-08 14:57:14 51°20.168 2°58.363 242 13.7 239 11.6
2005-12-08 14:58:14 51°20.048 2°58.056 241.3 13.4 239 11.8
2005-12-08 14:59:14 51°19.931 2°57.754 242.4 13.2 240 11.7
2005-12-08 15:00:14 51°19.815 2°57.453 241.9 13.3 239 11.7
2005-12-08 15:01:14 51°19.673 2°57.184 228.2 13.4 226 11.8
2005-12-08 15:02:13 51°19.524 2°56.928 230 13.5 227 11.7
2005-12-08 15:03:13 51°19.366 2°56.678 227.3 13.3 224 11.3
2005-12-08 15:04:14 51°19.201 2°56.422 226.5 13.6 223 11.2
2005-12-08 15:05:14 51°19.041 2°56.168 225.8 13.7 224 11.1
2005-12-08 15:06:14 51°18.881 2°55.912 227.6 13.6 226 11.1
2005-12-08 15:07:14 51°18.722 2°55.654 228.2 13.6 227 11.3
2005-12-08 15:08:14 51°18.563 2°55.395 227.9 13.7 225 11.3
2005-12-08 15:09:14 51°18.405 2°55.139 227.2 13.7 226 11
2005-12-08 15:10:14 51°18.238 2°54.895 224.4 13.5 221 10.7
2005-12-08 15:11:14 51°18.07 2°54.651 223.6 13.7 221 10.4
2005-12-08 15:12:14 51°17.903 2°54.412 223 13.3 220 10.3
2005-12-08 15:13:14 51°17.734 2°54.183 222.8 13.3 220 10.2
2005-12-08 15:14:14 51°17.566 2°53.958 222.8 13.2 221 10
2005-12-08 15:15:14 51°17.395 2°53.736 220.1 13.3 219 9.7
2005-12-08 15:16:14 51°17.214 2°53.541 216.6 13 213 9.8
2005-12-08 15:17:14 51°17.035 2°53.344 218.1 13 216 9.5
2005-12-08 15:18:13 51°16.853 2°53.16 214.6 13.5 213 10.5
2005-12-08 15:19:14 51°16.661 2°52.982 206.5 12.7 201 12.7
2005-12-08 15:20:14 51°16.45 2°52.912 187.2 13.2 183 13.2
2005-12-08 15:21:14 51°16.276 2°52.869 205.6 7.1 201 13.8
2005-12-08 15:22:14 51°16.218 2°52.8 241.2 2.7 230 13.7
2005-12-08 15:23:14 51°16.202 2°52.773 237.3 0.8 195 13.9
2005-12-08 15:24:14 51°16.189 2°52.767 230.2 0.9 193 13.8
2005-12-08 15:25:14 51°16.175 2°52.759 236.5 0.9 201 13.9
2005-12-08 15:26:14 51°16.145 2°52.725 220 3.8 207 13.9
2005-12-08 15:27:14 51°16.059 2°52.747 164.4 7.5 160 13.8
2005-12-08 15:28:14 51°15.901 2°52.866 158 12.3 153 13.6
2005-12-08 15:29:14 51°15.708 2°53.015 159.9 13.2 155 13
2005-12-08 15:30:14 51°15.516 2°53.169 156.4 13.1 152 12.3
2005-12-08 15:31:14 51°15.319 2°53.322 156 13.1 152 12.1
2005-12-08 15:32:14 51°15.133 2°53.498 152.7 12.8 149 11.4
2005-12-08 15:33:14 51°14.963 2°53.706 142.1 13 138 11
2005-12-08 15:34:14 51°14.814 2°53.956 133.3 12.9 128 11.3
2005-12-08 15:35:13 51°14.695 2°54.242 127.8 13.1 123 11.6
2005-12-08 15:36:14 51°14.577 2°54.537 127.7 13.1 122 11.8
2005-12-08 15:37:14 51°14.456 2°54.822 128.5 12.9 124 12.2
2005-12-08 15:38:14 51°14.345 2°55.088 130.5 10.5 127 12.4
2005-12-08 15:39:14 51°14.281 2°55.239 129 5.4 129 12.7
2005-12-08 15:40:14 51°14.225 2°55.308 152.6 3.9 149 13.4
2005-12-08 15:41:14 51°14.164 2°55.361 155.4 5.4 153 10.4
2005-12-08 15:42:14 51°14.065 2°55.437 157 6.9 155 12.4
2005-12-08 15:43:14 51°13.953 2°55.526 157.6 7.7 152 12.5
2005-12-08 15:44:14 51°13.833 2°55.626 154.2 8.3 151 12.9
2005-12-08 15:45:14 51°13.724 2°55.762 137.9 7.7 134 13.5
2005-12-08 15:46:14 51°13.658 2°55.902 126.8 5.8 123 11.6
2005-12-08 15:47:14 51°13.616 2°56.02 121.2 4.7 115 12
2005-12-08 15:48:14 51°13.599 2°56.092 122.9 1 115 8.5